sensor_id;sensor_type;location;lat;lon;timestamp;temperature;humidity
75113;DHT22;63692;47.338;8.520;2023-09-18T05:30:32;19.50;99.90
75113;DHT22;63692;47.338;8.520;2023-09-18T05:33:00;19.40;99.90
75113;DHT22;63692;47.338;8.520;2023-09-18T05:35:42;19.40;99.90
75113;DHT22;63692;47.338;8.520;2023-09-18T05:38:09;19.50;99.90
75113;DHT22;63692;47.338;8.520;2023-09-18T05:40:36;19.50;99.90
75113;DHT22;63692;47.338;8.520;2023-09-18T05:45:30;19.50;99.90
75113;DHT22;63692;47.338;8.520;2023-09-18T05:47:57;19.50;99.90
75113;DHT22;63692;47.338;8.520;2023-09-18T05:50:30;19.50;99.90
75113;DHT22;63692;47.338;8.520;2023-09-18T05:52:57;19.50;99.90
75113;DHT22;63692;47.338;8.520;2023-09-18T05:55:31;19.50;99.90
75113;DHT22;63692;47.338;8.520;2023-09-18T05:57:57;19.50;99.90
75113;DHT22;63692;47.338;8.520;2023-09-18T06:00:25;19.50;99.90
75113;DHT22;63692;47.338;8.520;2023-09-18T06:02:51;19.50;99.90
75113;DHT22;63692;47.338;8.520;2023-09-18T06:05:17;19.50;99.90
75113;DHT22;63692;47.338;8.520;2023-09-18T06:07:44;19.50;99.90
75113;DHT22;63692;47.338;8.520;2023-09-18T06:10:12;19.50;99.90
75113;DHT22;63692;47.338;8.520;2023-09-18T06:12:38;19.50;99.90
75113;DHT22;63692;47.338;8.520;2023-09-18T06:15:05;19.50;99.90
75113;DHT22;63692;47.338;8.520;2023-09-18T06:17:31;19.60;99.90
75113;DHT22;63692;47.338;8.520;2023-09-18T06:19:56;19.60;99.90
75113;DHT22;63692;47.338;8.520;2023-09-18T06:22:22;19.70;99.90
75113;DHT22;63692;47.338;8.520;2023-09-18T06:24:47;19.70;99.90
75113;DHT22;63692;47.338;8.520;2023-09-18T06:27:13;19.80;99.90
75113;DHT22;63692;47.338;8.520;2023-09-18T06:29:38;19.80;99.90
75113;DHT22;63692;47.338;8.520;2023-09-18T06:32:05;19.90;99.90
75113;DHT22;63692;47.338;8.520;2023-09-18T06:34:31;19.90;99.90
75113;DHT22;63692;47.338;8.520;2023-09-18T06:36:57;19.90;99.90
75113;DHT22;63692;47.338;8.520;2023-09-18T06:39:22;19.90;99.90
75113;DHT22;63692;47.338;8.520;2023-09-18T06:41:49;20.00;99.90
75113;DHT22;63692;47.338;8.520;2023-09-18T06:44:15;20.00;99.90
75113;DHT22;63692;47.338;8.520;2023-09-18T06:46:40;20.00;99.90
75113;DHT22;63692;47.338;8.520;2023-09-18T06:49:07;20.00;99.90
75113;DHT22;63692;47.338;8.520;2023-09-18T06:51:33;20.00;99.90
75113;DHT22;63692;47.338;8.520;2023-09-18T06:53:59;19.90;99.90
75113;DHT22;63692;47.338;8.520;2023-09-18T06:56:28;20.00;99.90
75113;DHT22;63692;47.338;8.520;2023-09-18T06:58:53;20.10;99.90
75113;DHT22;63692;47.338;8.520;2023-09-18T07:01:21;20.10;99.90
75113;DHT22;63692;47.338;8.520;2023-09-18T07:03:47;20.10;99.90
75113;DHT22;63692;47.338;8.520;2023-09-18T07:06:16;20.10;99.90
75113;DHT22;63692;47.338;8.520;2023-09-18T07:08:43;20.10;99.90
75113;DHT22;63692;47.338;8.520;2023-09-18T07:11:09;20.20;99.90
75113;DHT22;63692;47.338;8.520;2023-09-18T07:13:35;20.20;99.90
75113;DHT22;63692;47.338;8.520;2023-09-18T07:16:00;20.30;99.90
75113;DHT22;63692;47.338;8.520;2023-09-18T07:18:26;20.30;99.90
75113;DHT22;63692;47.338;8.520;2023-09-18T07:20:52;20.30;99.90
75113;DHT22;63692;47.338;8.520;2023-09-18T07:23:17;20.30;99.90
75113;DHT22;63692;47.338;8.520;2023-09-18T07:25:43;20.30;99.90
75113;DHT22;63692;47.338;8.520;2023-09-18T07:28:09;20.30;99.90
75113;DHT22;63692;47.338;8.520;2023-09-18T07:30:41;20.20;99.90
75113;DHT22;63692;47.338;8.520;2023-09-18T07:33:07;20.30;99.90
75113;DHT22;63692;47.338;8.520;2023-09-18T07:35:32;20.30;99.90
75113;DHT22;63692;47.338;8.520;2023-09-18T07:37:58;20.30;99.90
75113;DHT22;63692;47.338;8.520;2023-09-18T07:40:23;20.30;99.90
75113;DHT22;63692;47.338;8.520;2023-09-18T07:42:49;20.30;99.90
75113;DHT22;63692;47.338;8.520;2023-09-18T07:45:15;20.30;99.90
75113;DHT22;63692;47.338;8.520;2023-09-18T07:47:41;20.30;99.90
75113;DHT22;63692;47.338;8.520;2023-09-18T07:50:06;20.30;99.90
75113;DHT22;63692;47.338;8.520;2023-09-18T07:52:32;20.30;99.90
75113;DHT22;63692;47.338;8.520;2023-09-18T07:54:58;20.30;99.90
75113;DHT22;63692;47.338;8.520;2023-09-18T07:57:25;20.30;99.90
75113;DHT22;63692;47.338;8.520;2023-09-18T07:59:51;20.30;99.90
75113;DHT22;63692;47.338;8.520;2023-09-18T08:02:16;20.20;99.90
75113;DHT22;63692;47.338;8.520;2023-09-18T08:04:43;20.10;99.90
75113;DHT22;63692;47.338;8.520;2023-09-18T08:07:09;20.10;99.90
75113;DHT22;63692;47.338;8.520;2023-09-18T08:09:34;20.00;99.90
75113;DHT22;63692;47.338;8.520;2023-09-18T08:12:05;20.00;99.90
75113;DHT22;63692;47.338;8.520;2023-09-18T08:14:30;19.90;99.90
75113;DHT22;63692;47.338;8.520;2023-09-18T08:16:57;19.80;99.90
75113;DHT22;63692;47.338;8.520;2023-09-18T08:19:24;19.80;99.90
75113;DHT22;63692;47.338;8.520;2023-09-18T08:21:54;19.80;99.90
75113;DHT22;63692;47.338;8.520;2023-09-18T08:24:22;19.70;99.90
75113;DHT22;63692;47.338;8.520;2023-09-18T08:26:48;19.60;99.90
75113;DHT22;63692;47.338;8.520;2023-09-18T08:29:13;19.50;99.90
75113;DHT22;63692;47.338;8.520;2023-09-18T08:31:39;19.50;99.90
75113;DHT22;63692;47.338;8.520;2023-09-18T08:34:05;19.50;99.90
75113;DHT22;63692;47.338;8.520;2023-09-18T08:36:30;19.40;99.90
75113;DHT22;63692;47.338;8.520;2023-09-18T08:38:57;19.40;99.90
75113;DHT22;63692;47.338;8.520;2023-09-18T08:41:24;19.40;99.90
75113;DHT22;63692;47.338;8.520;2023-09-18T08:43:56;19.40;99.90
75113;DHT22;63692;47.338;8.520;2023-09-18T08:46:22;19.30;99.90
75113;DHT22;63692;47.338;8.520;2023-09-18T08:48:48;19.40;99.90
75113;DHT22;63692;47.338;8.520;2023-09-18T08:51:16;19.40;99.90
75113;DHT22;63692;47.338;8.520;2023-09-18T08:53:43;19.40;99.90
75113;DHT22;63692;47.338;8.520;2023-09-18T08:56:09;19.50;99.90
75113;DHT22;63692;47.338;8.520;2023-09-18T08:58:37;19.50;99.90
75113;DHT22;63692;47.338;8.520;2023-09-18T09:01:06;19.40;99.90
75113;DHT22;63692;47.338;8.520;2023-09-18T09:03:39;19.40;99.90
75113;DHT22;63692;47.338;8.520;2023-09-18T09:06:09;19.30;99.90
75113;DHT22;63692;47.338;8.520;2023-09-18T09:08:36;19.30;99.90
75113;DHT22;63692;47.338;8.520;2023-09-18T09:11:02;19.30;99.90
75113;DHT22;63692;47.338;8.520;2023-09-18T09:13:28;19.20;99.90
75113;DHT22;63692;47.338;8.520;2023-09-18T09:15:55;19.30;99.90
75113;DHT22;63692;47.338;8.520;2023-09-18T09:18:23;19.30;99.90
75113;DHT22;63692;47.338;8.520;2023-09-18T09:23:19;19.30;99.90
75113;DHT22;63692;47.338;8.520;2023-09-18T09:25:44;19.20;99.90
75113;DHT22;63692;47.338;8.520;2023-09-18T09:28:10;19.30;99.90
75113;DHT22;63692;47.338;8.520;2023-09-18T09:30:37;19.20;99.90
75113;DHT22;63692;47.338;8.520;2023-09-18T09:33:04;19.20;99.90
75113;DHT22;63692;47.338;8.520;2023-09-18T09:35:32;19.20;99.90
75113;DHT22;63692;47.338;8.520;2023-09-18T09:38:11;19.20;99.90
75113;DHT22;63692;47.338;8.520;2023-09-18T09:40:41;19.20;99.90
75113;DHT22;63692;47.338;8.520;2023-09-18T09:43:10;19.20;99.90
75113;DHT22;63692;47.338;8.520;2023-09-18T09:45:36;19.30;99.90
75113;DHT22;63692;47.338;8.520;2023-09-18T09:48:03;19.30;99.90
75113;DHT22;63692;47.338;8.520;2023-09-18T09:50:31;19.40;99.90
75113;DHT22;63692;47.338;8.520;2023-09-18T09:52:58;19.40;99.90
75113;DHT22;63692;47.338;8.520;2023-09-18T09:55:32;19.40;99.90
75113;DHT22;63692;47.338;8.520;2023-09-18T09:58:03;19.40;99.90
75113;DHT22;63692;47.338;8.520;2023-09-18T10:00:46;19.40;99.90
75113;DHT22;63692;47.338;8.520;2023-09-18T10:03:19;19.30;99.90
75113;DHT22;63692;47.338;8.520;2023-09-18T10:05:46;19.30;99.90
75113;DHT22;63692;47.338;8.520;2023-09-18T10:08:16;19.20;99.90
75113;DHT22;63692;47.338;8.520;2023-09-18T10:11:05;19.20;99.90
75113;DHT22;63692;47.338;8.520;2023-09-18T10:16:13;19.20;99.90
75113;DHT22;63692;47.338;8.520;2023-09-18T10:21:32;19.30;99.90
75113;DHT22;63692;47.338;8.520;2023-09-18T10:24:15;19.30;99.90
75113;DHT22;63692;47.338;8.520;2023-09-18T10:26:57;19.30;99.90
75113;DHT22;63692;47.338;8.520;2023-09-18T10:29:24;19.30;99.90
75113;DHT22;63692;47.338;8.520;2023-09-18T10:31:51;19.30;99.90
75113;DHT22;63692;47.338;8.520;2023-09-18T10:34:19;19.40;99.90
75113;DHT22;63692;47.338;8.520;2023-09-18T10:36:47;19.40;99.90
75113;DHT22;63692;47.338;8.520;2023-09-18T10:39:14;19.40;99.90
75113;DHT22;63692;47.338;8.520;2023-09-18T10:41:53;19.50;99.90
75113;DHT22;63692;47.338;8.520;2023-09-18T10:44:19;19.50;99.90
75113;DHT22;63692;47.338;8.520;2023-09-18T10:46:46;19.60;99.90
75113;DHT22;63692;47.338;8.520;2023-09-18T10:49:12;19.70;99.90
75113;DHT22;63692;47.338;8.520;2023-09-18T10:51:38;19.70;99.90
75113;DHT22;63692;47.338;8.520;2023-09-18T10:54:09;19.70;99.90
75113;DHT22;63692;47.338;8.520;2023-09-18T10:56:35;19.60;99.90
75113;DHT22;63692;47.338;8.520;2023-09-18T10:59:02;19.60;99.90
75113;DHT22;63692;47.338;8.520;2023-09-18T11:01:30;19.70;99.90
75113;DHT22;63692;47.338;8.520;2023-09-18T11:04:04;19.80;99.90
75113;DHT22;63692;47.338;8.520;2023-09-18T11:09:28;20.00;99.90
75113;DHT22;63692;47.338;8.520;2023-09-18T11:17:39;20.00;99.90
75113;DHT22;63692;47.338;8.520;2023-09-18T11:28:00;20.20;99.90
75113;DHT22;63692;47.338;8.520;2023-09-18T11:30:27;20.10;99.90
75113;DHT22;63692;47.338;8.520;2023-09-18T11:32:54;20.10;99.90
75113;DHT22;63692;47.338;8.520;2023-09-18T11:35:21;20.10;99.90
75113;DHT22;63692;47.338;8.520;2023-09-18T11:37:47;20.10;99.90
75113;DHT22;63692;47.338;8.520;2023-09-18T11:40:30;20.00;99.90
75113;DHT22;63692;47.338;8.520;2023-09-18T11:46:00;20.00;99.90
75113;DHT22;63692;47.338;8.520;2023-09-18T11:48:29;19.90;99.90
75113;DHT22;63692;47.338;8.520;2023-09-18T11:50:57;20.00;99.90
75113;DHT22;63692;47.338;8.520;2023-09-18T11:53:24;20.00;99.90
75113;DHT22;63692;47.338;8.520;2023-09-18T11:55:52;20.10;99.90
75113;DHT22;63692;47.338;8.520;2023-09-18T11:58:17;20.10;99.90
75113;DHT22;63692;47.338;8.520;2023-09-18T12:00:47;20.20;99.90
75113;DHT22;63692;47.338;8.520;2023-09-18T12:03:14;20.10;99.90
75113;DHT22;63692;47.338;8.520;2023-09-18T12:05:44;20.10;99.90
75113;DHT22;63692;47.338;8.520;2023-09-18T12:08:11;20.10;99.90
75113;DHT22;63692;47.338;8.520;2023-09-18T12:10:37;20.00;99.90
75113;DHT22;63692;47.338;8.520;2023-09-18T12:13:06;20.00;99.90
75113;DHT22;63692;47.338;8.520;2023-09-18T12:15:37;20.10;99.90
75113;DHT22;63692;47.338;8.520;2023-09-18T12:18:09;20.00;99.90
75113;DHT22;63692;47.338;8.520;2023-09-18T12:20:34;20.00;99.90
75113;DHT22;63692;47.338;8.520;2023-09-18T12:23:01;19.90;99.90
75113;DHT22;63692;47.338;8.520;2023-09-18T12:25:28;19.90;99.90
75113;DHT22;63692;47.338;8.520;2023-09-18T12:27:54;19.80;99.90
75113;DHT22;63692;47.338;8.520;2023-09-18T12:30:21;19.70;99.90
75113;DHT22;63692;47.338;8.520;2023-09-18T12:32:48;19.70;99.90
75113;DHT22;63692;47.338;8.520;2023-09-18T12:35:14;19.70;99.90
75113;DHT22;63692;47.338;8.520;2023-09-18T12:37:41;19.70;99.90
75113;DHT22;63692;47.338;8.520;2023-09-18T12:40:29;19.70;99.90
75113;DHT22;63692;47.338;8.520;2023-09-18T12:42:56;19.70;99.90
75113;DHT22;63692;47.338;8.520;2023-09-18T12:45:23;19.70;99.90
75113;DHT22;63692;47.338;8.520;2023-09-18T12:47:49;19.70;99.90
75113;DHT22;63692;47.338;8.520;2023-09-18T12:50:15;19.80;99.90
75113;DHT22;63692;47.338;8.520;2023-09-18T12:52:41;19.80;99.90
75113;DHT22;63692;47.338;8.520;2023-09-18T12:55:08;19.80;99.90
75113;DHT22;63692;47.338;8.520;2023-09-18T12:57:34;19.90;99.90
75113;DHT22;63692;47.338;8.520;2023-09-18T12:59:59;19.90;99.90
75113;DHT22;63692;47.338;8.520;2023-09-18T13:02:28;20.00;99.90
75113;DHT22;63692;47.338;8.520;2023-09-18T13:04:55;20.10;99.90
75113;DHT22;63692;47.338;8.520;2023-09-18T13:07:22;20.10;99.90
75113;DHT22;63692;47.338;8.520;2023-09-18T13:10:16;20.30;99.90
75113;DHT22;63692;47.338;8.520;2023-09-18T13:12:48;20.30;99.90
75113;DHT22;63692;47.338;8.520;2023-09-18T13:15:30;20.50;99.90
75113;DHT22;63692;47.338;8.520;2023-09-18T13:18:09;20.60;99.90
75113;DHT22;63692;47.338;8.520;2023-09-18T13:20:35;20.70;99.90
75113;DHT22;63692;47.338;8.520;2023-09-18T13:23:01;20.70;99.90
75113;DHT22;63692;47.338;8.520;2023-09-18T13:25:35;20.80;99.90
75113;DHT22;63692;47.338;8.520;2023-09-18T13:28:04;20.90;99.90
75113;DHT22;63692;47.338;8.520;2023-09-18T13:30:31;21.00;99.90
75113;DHT22;63692;47.338;8.520;2023-09-18T13:33:13;21.00;99.90
75113;DHT22;63692;47.338;8.520;2023-09-18T13:35:43;21.00;99.90
75113;DHT22;63692;47.338;8.520;2023-09-18T13:38:09;21.00;99.90
75113;DHT22;63692;47.338;8.520;2023-09-18T13:40:43;21.00;99.90
75113;DHT22;63692;47.338;8.520;2023-09-18T13:43:10;21.00;99.90
75113;DHT22;63692;47.338;8.520;2023-09-18T13:45:37;20.90;99.90
75113;DHT22;63692;47.338;8.520;2023-09-18T13:48:06;20.90;99.90
75113;DHT22;63692;47.338;8.520;2023-09-18T13:50:33;20.90;99.90
75113;DHT22;63692;47.338;8.520;2023-09-18T13:53:00;21.00;99.90
75113;DHT22;63692;47.338;8.520;2023-09-18T13:55:25;20.90;99.90
75113;DHT22;63692;47.338;8.520;2023-09-18T13:57:51;20.90;99.90
75113;DHT22;63692;47.338;8.520;2023-09-18T14:00:18;20.80;99.90
75113;DHT22;63692;47.338;8.520;2023-09-18T14:02:44;20.90;99.90
75113;DHT22;63692;47.338;8.520;2023-09-18T14:05:10;21.00;99.90
75113;DHT22;63692;47.338;8.520;2023-09-18T14:07:37;21.10;99.90
75113;DHT22;63692;47.338;8.520;2023-09-18T14:10:07;21.20;99.90
75113;DHT22;63692;47.338;8.520;2023-09-18T14:12:33;21.40;99.90
75113;DHT22;63692;47.338;8.520;2023-09-18T14:14:58;21.50;99.90
75113;DHT22;63692;47.338;8.520;2023-09-18T14:17:25;21.50;99.90
75113;DHT22;63692;47.338;8.520;2023-09-18T14:19:51;21.50;99.90
75113;DHT22;63692;47.338;8.520;2023-09-18T14:22:19;21.50;99.90
75113;DHT22;63692;47.338;8.520;2023-09-18T14:24:44;21.50;99.90
75113;DHT22;63692;47.338;8.520;2023-09-18T14:27:10;21.50;99.90
75113;DHT22;63692;47.338;8.520;2023-09-18T14:29:37;21.60;99.90
75113;DHT22;63692;47.338;8.520;2023-09-18T14:32:03;21.60;99.90
75113;DHT22;63692;47.338;8.520;2023-09-18T14:34:30;21.60;99.90
75113;DHT22;63692;47.338;8.520;2023-09-18T14:36:56;21.60;99.90
75113;DHT22;63692;47.338;8.520;2023-09-18T14:39:22;21.50;99.90
75113;DHT22;63692;47.338;8.520;2023-09-18T14:41:49;21.50;99.90
75113;DHT22;63692;47.338;8.520;2023-09-18T14:44:15;21.50;99.90
75113;DHT22;63692;47.338;8.520;2023-09-18T14:46:41;21.40;99.90
75113;DHT22;63692;47.338;8.520;2023-09-18T14:49:07;21.40;99.90
75113;DHT22;63692;47.338;8.520;2023-09-18T14:51:36;21.40;99.90
75113;DHT22;63692;47.338;8.520;2023-09-18T14:54:02;21.50;99.90
75113;DHT22;63692;47.338;8.520;2023-09-18T14:56:30;21.50;99.90
75113;DHT22;63692;47.338;8.520;2023-09-18T14:58:56;21.40;99.90
75113;DHT22;63692;47.338;8.520;2023-09-18T15:01:24;21.40;99.90
75113;DHT22;63692;47.338;8.520;2023-09-18T15:03:50;21.40;99.90
75113;DHT22;63692;47.338;8.520;2023-09-18T15:06:16;21.40;99.90
75113;DHT22;63692;47.338;8.520;2023-09-18T15:08:42;21.30;99.90
75113;DHT22;63692;47.338;8.520;2023-09-18T15:11:11;21.30;99.90
75113;DHT22;63692;47.338;8.520;2023-09-18T15:13:38;21.30;99.90
75113;DHT22;63692;47.338;8.520;2023-09-18T15:16:04;21.30;99.90
75113;DHT22;63692;47.338;8.520;2023-09-18T15:18:30;21.30;99.90
75113;DHT22;63692;47.338;8.520;2023-09-18T15:20:56;21.20;99.90
75113;DHT22;63692;47.338;8.520;2023-09-18T15:23:22;21.10;99.90
75113;DHT22;63692;47.338;8.520;2023-09-18T15:25:49;21.00;99.90
75113;DHT22;63692;47.338;8.520;2023-09-18T15:28:16;21.00;99.90
75113;DHT22;63692;47.338;8.520;2023-09-18T15:30:42;20.90;99.90
75113;DHT22;63692;47.338;8.520;2023-09-18T15:33:08;20.90;99.90
75113;DHT22;63692;47.338;8.520;2023-09-18T15:35:34;20.80;99.90
75113;DHT22;63692;47.338;8.520;2023-09-18T15:37:59;20.80;99.90
75113;DHT22;63692;47.338;8.520;2023-09-18T15:40:26;20.70;99.90
75113;DHT22;63692;47.338;8.520;2023-09-18T15:42:52;20.80;99.90
75113;DHT22;63692;47.338;8.520;2023-09-18T15:45:18;20.70;99.90
75113;DHT22;63692;47.338;8.520;2023-09-18T15:47:44;20.70;99.90
75113;DHT22;63692;47.338;8.520;2023-09-18T15:50:11;20.70;99.90
75113;DHT22;63692;47.338;8.520;2023-09-18T15:52:38;20.70;99.90
75113;DHT22;63692;47.338;8.520;2023-09-18T15:55:04;20.70;99.90
75113;DHT22;63692;47.338;8.520;2023-09-18T15:57:35;20.70;99.90
75113;DHT22;63692;47.338;8.520;2023-09-18T16:00:03;20.70;99.90
75113;DHT22;63692;47.338;8.520;2023-09-18T16:02:32;20.70;99.90
75113;DHT22;63692;47.338;8.520;2023-09-18T16:04:58;20.70;99.90
75113;DHT22;63692;47.338;8.520;2023-09-18T16:07:25;20.70;99.90
75113;DHT22;63692;47.338;8.520;2023-09-18T16:09:51;20.70;99.90
75113;DHT22;63692;47.338;8.520;2023-09-18T16:12:23;20.70;99.90
75113;DHT22;63692;47.338;8.520;2023-09-18T16:17:19;20.70;99.90
75113;DHT22;63692;47.338;8.520;2023-09-18T16:19:46;20.60;99.90
75113;DHT22;63692;47.338;8.520;2023-09-18T16:22:11;20.60;99.90
75113;DHT22;63692;47.338;8.520;2023-09-18T16:24:38;20.60;99.90
75113;DHT22;63692;47.338;8.520;2023-09-18T16:27:03;20.60;99.90
75113;DHT22;63692;47.338;8.520;2023-09-18T16:29:30;20.50;99.90
75113;DHT22;63692;47.338;8.520;2023-09-18T16:31:58;20.40;99.90
75113;DHT22;63692;47.338;8.520;2023-09-18T16:34:24;20.40;99.90
75113;DHT22;63692;47.338;8.520;2023-09-18T16:36:51;20.30;99.90
75113;DHT22;63692;47.338;8.520;2023-09-18T16:39:16;20.20;99.90
75113;DHT22;63692;47.338;8.520;2023-09-18T16:41:43;20.20;99.90
75113;DHT22;63692;47.338;8.520;2023-09-18T16:44:09;20.10;99.90
75113;DHT22;63692;47.338;8.520;2023-09-18T16:46:35;20.00;99.90
75113;DHT22;63692;47.338;8.520;2023-09-18T16:49:07;19.90;99.90
75113;DHT22;63692;47.338;8.520;2023-09-18T16:51:36;19.90;99.90
75113;DHT22;63692;47.338;8.520;2023-09-18T16:54:02;19.70;99.90
75113;DHT22;63692;47.338;8.520;2023-09-18T16:56:27;19.70;99.90
75113;DHT22;63692;47.338;8.520;2023-09-18T16:58:54;19.60;99.90
75113;DHT22;63692;47.338;8.520;2023-09-18T17:01:20;19.50;99.90
75113;DHT22;63692;47.338;8.520;2023-09-18T17:03:47;19.50;99.90
75113;DHT22;63692;47.338;8.520;2023-09-18T17:06:14;19.40;99.90
75113;DHT22;63692;47.338;8.520;2023-09-18T17:08:41;19.30;99.90
75113;DHT22;63692;47.338;8.520;2023-09-18T17:11:06;19.30;99.90
75113;DHT22;63692;47.338;8.520;2023-09-18T17:13:32;19.20;99.90
75113;DHT22;63692;47.338;8.520;2023-09-18T17:15:58;19.10;99.90
75113;DHT22;63692;47.338;8.520;2023-09-18T17:18:24;19.10;99.90
75113;DHT22;63692;47.338;8.520;2023-09-18T17:20:50;19.00;99.90
75113;DHT22;63692;47.338;8.520;2023-09-18T17:23:16;19.10;99.90
75113;DHT22;63692;47.338;8.520;2023-09-18T17:25:43;19.00;99.90
75113;DHT22;63692;47.338;8.520;2023-09-18T17:28:09;19.00;99.90
75113;DHT22;63692;47.338;8.520;2023-09-18T17:30:36;18.90;99.90
75113;DHT22;63692;47.338;8.520;2023-09-18T17:33:02;18.90;99.90
75113;DHT22;63692;47.338;8.520;2023-09-18T17:35:31;18.90;99.90
75113;DHT22;63692;47.338;8.520;2023-09-18T17:37:58;18.90;99.90
75113;DHT22;63692;47.338;8.520;2023-09-18T17:40:24;18.80;99.90
75113;DHT22;63692;47.338;8.520;2023-09-18T17:42:50;18.80;99.90
75113;DHT22;63692;47.338;8.520;2023-09-18T17:45:17;18.80;99.90
75113;DHT22;63692;47.338;8.520;2023-09-18T17:47:42;18.70;99.90
75113;DHT22;63692;47.338;8.520;2023-09-18T17:50:08;18.70;99.90
75113;DHT22;63692;47.338;8.520;2023-09-18T17:52:34;18.70;99.90
75113;DHT22;63692;47.338;8.520;2023-09-18T17:55:00;18.80;99.90
75113;DHT22;63692;47.338;8.520;2023-09-18T17:57:30;18.90;99.90
75113;DHT22;63692;47.338;8.520;2023-09-18T17:59:56;19.00;99.90
75113;DHT22;63692;47.338;8.520;2023-09-18T18:02:23;19.10;99.90
75113;DHT22;63692;47.338;8.520;2023-09-18T18:04:49;19.10;99.90
75113;DHT22;63692;47.338;8.520;2023-09-18T18:07:17;19.10;99.90
